createdAt,value
2023-04-17T00:00:17.838Z,23.88
2023-04-17T00:02:45.157Z,27.80
2023-04-17T00:05:12.372Z,26.95
2023-04-17T00:07:39.333Z,25.35
2023-04-17T00:10:10.434Z,29.17
2023-04-17T00:12:37.874Z,28.55
2023-04-17T00:15:05.560Z,32.35
2023-04-17T00:17:32.573Z,27.13
2023-04-17T00:19:59.554Z,29.52
2023-04-17T00:22:26.608Z,27.45
2023-04-17T00:24:53.552Z,31.45
2023-04-17T00:27:20.475Z,30.75
2023-04-17T00:29:47.363Z,30.85
2023-04-17T00:32:14.343Z,30.85
2023-04-17T00:34:41.374Z,31.60
2023-04-17T00:37:08.324Z,31.58
2023-04-17T00:39:35.545Z,29.50
2023-04-17T00:42:03.103Z,26.55
2023-04-17T00:44:30.213Z,30.08
2023-04-17T00:46:57.235Z,30.50
2023-04-17T00:49:25.881Z,28.05
2023-04-17T00:51:53.445Z,28.95
2023-04-17T00:54:22.980Z,28.90
2023-04-17T00:56:52.187Z,31.20
2023-04-17T00:59:19.296Z,30.63
2023-04-17T01:01:46.780Z,30.17
2023-04-17T01:04:13.999Z,26.08
2023-04-17T01:06:41.873Z,33.47
2023-04-17T01:09:08.976Z,28.45
2023-04-17T01:11:36.450Z,27.98
2023-04-17T01:14:03.419Z,34.97
2023-04-17T01:16:30.748Z,31.08
2023-04-17T01:18:57.724Z,30.63
2023-04-17T01:21:25.698Z,31.10
2023-04-17T01:23:53.257Z,27.67
2023-04-17T01:26:25.689Z,33.15
2023-04-17T01:28:58.285Z,30.10
2023-04-17T01:31:27.041Z,32.47
2023-04-17T01:33:54.805Z,26.40
2023-04-17T01:36:21.976Z,28.55
2023-04-17T01:38:48.934Z,34.40
2023-04-17T01:41:15.918Z,30.00
2023-04-17T01:43:45.706Z,33.88
2023-04-17T01:46:13.049Z,32.00
2023-04-17T01:48:40.749Z,29.67
2023-04-17T01:51:07.699Z,31.63
2023-04-17T01:53:36.093Z,36.55
2023-04-17T01:56:03.045Z,31.23
2023-04-17T01:58:30.963Z,35.25
2023-04-17T02:00:57.956Z,32.83
2023-04-17T02:03:25.048Z,28.00
2023-04-17T02:05:55.200Z,33.50
2023-04-17T02:10:49.143Z,36.08
2023-04-17T02:13:16.307Z,33.60
2023-04-17T02:15:43.741Z,33.30
2023-04-17T02:18:10.813Z,35.00
2023-04-17T02:20:38.596Z,32.53
2023-04-17T02:23:06.842Z,33.53
2023-04-17T02:25:34.175Z,30.88
2023-04-17T02:28:01.236Z,29.50
2023-04-17T02:30:28.632Z,34.03
2023-04-17T02:32:57.427Z,37.00
2023-04-17T02:35:27.767Z,35.88
2023-04-17T02:37:56.103Z,29.35
2023-04-17T02:40:23.967Z,36.97
2023-04-17T02:42:56.713Z,33.47
2023-04-17T02:45:23.634Z,33.08
2023-04-17T02:47:50.731Z,35.72
2023-04-17T02:50:18.317Z,35.58
2023-04-17T02:53:01.553Z,32.25
2023-04-17T02:55:28.752Z,31.77
2023-04-17T02:57:55.744Z,32.38
2023-04-17T03:00:23.170Z,30.15
2023-04-17T03:02:50.675Z,31.15
2023-04-17T03:05:20.381Z,30.98
2023-04-17T03:07:47.627Z,31.98
2023-04-17T03:10:14.659Z,27.13
2023-04-17T03:12:41.683Z,36.88
2023-04-17T03:15:09.221Z,33.42
2023-04-17T03:17:36.371Z,31.90
2023-04-17T03:20:04.228Z,33.53
2023-04-17T03:22:31.182Z,32.92
2023-04-17T03:24:58.163Z,38.17
2023-04-17T03:27:27.883Z,40.70
2023-04-17T03:29:57.980Z,37.55
2023-04-17T03:32:26.510Z,50.42
2023-04-17T03:34:53.408Z,37.40
2023-04-17T03:37:20.467Z,34.40
2023-04-17T03:39:47.409Z,37.08
2023-04-17T03:42:14.757Z,35.30
2023-04-17T03:44:41.830Z,33.95
2023-04-17T03:47:10.361Z,36.67
2023-04-17T03:49:37.611Z,33.92
2023-04-17T03:52:05.454Z,36.15
2023-04-17T03:54:35.669Z,32.92
2023-04-17T03:57:04.973Z,39.05
2023-04-17T03:59:33.196Z,32.38
2023-04-17T04:02:00.709Z,33.63
2023-04-17T04:04:30.640Z,33.70
2023-04-17T04:07:05.996Z,32.80
2023-04-17T04:09:34.035Z,36.78
2023-04-17T04:12:01.348Z,36.38
2023-04-17T04:14:29.376Z,35.30
2023-04-17T04:16:56.753Z,38.90
2023-04-17T04:19:23.702Z,35.70
2023-04-17T04:21:50.985Z,33.97
2023-04-17T04:24:20.256Z,35.47
2023-04-17T04:26:49.591Z,34.53
2023-04-17T04:29:17.865Z,40.67
2023-04-17T04:31:59.331Z,34.28
2023-04-17T04:34:33.153Z,33.17
2023-04-17T04:37:00.163Z,31.98
2023-04-17T04:39:33.680Z,35.55
2023-04-17T04:42:06.080Z,36.28
2023-04-17T04:44:43.605Z,36.30
2023-04-17T04:47:10.885Z,35.95
2023-04-17T04:49:38.202Z,37.83
2023-04-17T04:52:05.738Z,40.80
2023-04-17T04:54:34.139Z,40.97
2023-04-17T04:57:02.256Z,39.30
2023-04-17T04:59:29.246Z,41.05
2023-04-17T05:04:39.714Z,33.97
2023-04-17T05:07:07.299Z,41.20
2023-04-17T05:09:35.707Z,39.22
2023-04-17T05:12:04.258Z,36.85
2023-04-17T05:14:31.476Z,39.22
2023-04-17T05:16:58.460Z,42.67
2023-04-17T05:19:25.866Z,41.47
2023-04-17T05:22:01.062Z,38.38
2023-04-17T05:24:28.776Z,41.58
2023-04-17T05:26:57.028Z,41.17
2023-04-17T05:29:25.213Z,36.58
2023-04-17T05:31:54.063Z,37.28
2023-04-17T05:34:39.569Z,43.08
2023-04-17T05:37:07.055Z,37.22
2023-04-17T05:39:34.342Z,36.72
2023-04-17T05:42:01.982Z,40.47
2023-04-17T05:44:28.862Z,43.92
2023-04-17T05:46:57.420Z,36.70
2023-04-17T05:49:24.342Z,41.90
2023-04-17T05:51:51.241Z,38.45
2023-04-17T05:54:18.168Z,41.40
2023-04-17T05:56:47.511Z,40.08
2023-04-17T05:59:15.319Z,44.40
2023-04-17T06:01:43.682Z,43.38
2023-04-17T06:04:11.482Z,37.22
2023-04-17T06:06:38.697Z,40.45
2023-04-17T06:09:07.763Z,43.15
2023-04-17T06:11:34.709Z,44.60
2023-04-17T06:14:01.820Z,37.63
2023-04-17T06:16:28.865Z,42.20
2023-04-17T06:18:56.084Z,38.10
2023-04-17T06:21:23.080Z,38.53
2023-04-17T06:23:49.999Z,38.10
2023-04-17T06:26:17.360Z,39.83
2023-04-17T06:28:44.377Z,39.22
2023-04-17T06:31:12.287Z,46.22
2023-04-17T06:33:39.551Z,38.65
2023-04-17T06:36:07.804Z,38.22
2023-04-17T06:38:46.896Z,39.25
2023-04-17T06:41:14.922Z,34.13
2023-04-17T06:43:41.992Z,41.28
2023-04-17T06:46:13.992Z,39.22
2023-04-17T06:48:41.107Z,39.88
2023-04-17T06:51:08.010Z,39.65
2023-04-17T06:53:34.952Z,32.00
2023-04-17T06:56:01.907Z,35.42
2023-04-17T06:58:28.826Z,35.20
2023-04-17T07:00:55.738Z,36.70
2023-04-17T07:03:22.756Z,32.65
2023-04-17T07:05:50.622Z,37.97
2023-04-17T07:08:19.383Z,36.28
2023-04-17T07:10:46.310Z,36.00
2023-04-17T07:13:13.388Z,30.52
2023-04-17T07:15:40.391Z,35.75
2023-04-17T07:18:07.606Z,35.70
2023-04-17T07:20:34.756Z,31.88
2023-04-17T07:23:01.682Z,31.38
2023-04-17T07:25:28.581Z,33.75
2023-04-17T07:27:55.990Z,33.65
2023-04-17T07:30:22.967Z,32.92
2023-04-17T07:32:49.939Z,34.85
2023-04-17T07:35:17.158Z,30.63
2023-04-17T07:37:44.314Z,27.23
2023-04-17T07:40:11.825Z,29.17
2023-04-17T07:42:38.735Z,25.02
2023-04-17T07:45:06.765Z,23.83
2023-04-17T07:47:33.887Z,25.85
2023-04-17T07:50:00.817Z,25.55
2023-04-17T07:52:27.749Z,30.20
2023-04-17T07:54:56.557Z,24.17
2023-04-17T07:57:26.379Z,23.13
2023-04-17T08:02:21.299Z,24.25
2023-04-17T08:04:49.672Z,22.42
2023-04-17T08:07:18.207Z,24.23
2023-04-17T08:09:45.534Z,20.40
2023-04-17T08:12:12.465Z,23.08
2023-04-17T08:14:40.814Z,21.08
2023-04-17T08:17:08.864Z,20.98
2023-04-17T08:19:35.909Z,24.35
2023-04-17T08:22:06.062Z,18.80
2023-04-17T08:24:32.984Z,18.55
2023-04-17T08:26:59.962Z,20.67
2023-04-17T08:29:27.047Z,22.25
2023-04-17T08:32:10.411Z,20.08
2023-04-17T08:34:40.719Z,18.20
2023-04-17T08:37:07.667Z,20.35
2023-04-17T08:39:34.592Z,18.85
2023-04-17T08:42:07.797Z,21.48
2023-04-17T08:44:34.896Z,17.50
2023-04-17T08:47:04.515Z,18.85
2023-04-17T08:49:35.023Z,19.05
2023-04-17T08:52:04.417Z,18.45
2023-04-17T08:54:35.022Z,17.55
2023-04-17T08:57:04.007Z,19.95
2023-04-17T08:59:33.467Z,21.10
2023-04-17T09:02:08.037Z,16.52
2023-04-17T09:04:39.843Z,16.88
2023-04-17T09:07:08.166Z,16.75
2023-04-17T09:09:54.944Z,18.40
2023-04-17T09:12:26.758Z,17.67
2023-04-17T09:14:53.808Z,15.95
2023-04-17T09:17:21.577Z,19.45
2023-04-17T09:20:12.042Z,17.90
2023-04-17T09:22:40.868Z,19.02
2023-04-17T09:25:23.205Z,19.67
2023-04-17T09:27:50.248Z,20.25
2023-04-17T09:30:17.263Z,19.55
2023-04-17T09:32:44.343Z,20.70
2023-04-17T09:35:11.737Z,19.80
2023-04-17T09:37:52.686Z,19.80
2023-04-17T09:40:21.648Z,21.00
2023-04-17T09:43:08.924Z,20.08
2023-04-17T09:45:39.194Z,19.83
2023-04-17T09:48:09.705Z,20.88
2023-04-17T09:50:38.602Z,20.42
2023-04-17T09:53:07.921Z,20.85
2023-04-17T09:55:37.657Z,22.35
2023-04-17T09:58:07.459Z,24.15
2023-04-17T10:00:36.554Z,20.77
2023-04-17T10:03:03.946Z,23.25
2023-04-17T10:05:32.493Z,21.38
2023-04-17T10:07:59.985Z,21.23
2023-04-17T10:10:33.664Z,21.92
2023-04-17T10:13:04.461Z,22.65
2023-04-17T10:15:33.741Z,22.20
2023-04-17T10:18:23.376Z,20.70
2023-04-17T10:20:53.384Z,19.27
2023-04-17T10:23:31.658Z,20.70
2023-04-17T10:26:26.274Z,23.30
2023-04-17T10:28:54.843Z,21.33
2023-04-17T10:31:24.941Z,20.73
2023-04-17T10:33:54.311Z,22.10
2023-04-17T10:36:39.495Z,19.95
2023-04-17T10:39:18.166Z,21.40
2023-04-17T10:42:05.694Z,22.73
2023-04-17T10:44:52.281Z,21.17
2023-04-17T10:47:22.811Z,21.70
2023-04-17T10:49:53.915Z,21.73
2023-04-17T10:52:42.084Z,23.45
2023-04-17T10:55:22.944Z,19.75
2023-04-17T10:58:00.984Z,20.30
2023-04-17T11:00:36.742Z,20.80
2023-04-17T11:03:06.343Z,20.80
2023-04-17T11:05:35.927Z,21.70
2023-04-17T11:08:03.230Z,20.85
2023-04-17T11:10:30.215Z,21.45
2023-04-17T11:12:57.168Z,18.00
2023-04-17T11:15:33.947Z,20.75
2023-04-17T11:18:03.250Z,20.40
2023-04-17T11:20:33.050Z,19.92
2023-04-17T11:23:05.656Z,22.23
2023-04-17T11:25:34.416Z,22.00
2023-04-17T11:28:05.963Z,20.70
2023-04-17T11:30:42.193Z,21.27
2023-04-17T11:33:09.351Z,20.30
2023-04-17T11:35:38.835Z,20.75
2023-04-17T11:38:14.341Z,22.10
2023-04-17T11:41:01.258Z,18.42
2023-04-17T11:43:36.977Z,21.67
2023-04-17T11:46:05.177Z,19.05
2023-04-17T11:48:35.224Z,22.30
2023-04-17T11:51:06.426Z,21.33
2023-04-17T11:53:36.221Z,21.90
2023-04-17T11:56:15.517Z,20.40
2023-04-17T11:58:53.518Z,20.55
2023-04-17T12:01:25.017Z,23.08
2023-04-17T12:03:59.565Z,18.52
2023-04-17T12:06:39.204Z,21.23
2023-04-17T12:09:07.251Z,21.35
2023-04-17T12:11:34.984Z,21.50
2023-04-17T12:14:03.752Z,20.38
2023-04-17T12:16:31.427Z,22.98
2023-04-17T12:18:58.561Z,21.60
2023-04-17T12:21:25.559Z,23.02
2023-04-17T12:23:52.679Z,20.50
2023-04-17T12:26:19.604Z,20.90
2023-04-17T12:28:46.555Z,22.15
2023-04-17T12:31:13.691Z,20.88
2023-04-17T12:33:41.416Z,21.38
2023-04-17T12:36:09.188Z,21.75
2023-04-17T12:38:36.286Z,21.63
2023-04-17T12:41:03.405Z,19.52
2023-04-17T12:43:33.029Z,20.73
2023-04-17T12:48:27.282Z,23.60
2023-04-17T12:50:54.514Z,21.25
2023-04-17T12:53:21.618Z,21.05
2023-04-17T12:55:48.538Z,20.27
2023-04-17T12:58:15.960Z,20.75
2023-04-17T13:00:44.292Z,21.02
2023-04-17T13:03:12.234Z,19.48
2023-04-17T13:05:39.744Z,19.80
2023-04-17T13:08:09.648Z,21.38
2023-04-17T13:10:36.597Z,20.13
2023-04-17T13:13:04.742Z,20.08
2023-04-17T13:15:32.155Z,20.55
2023-04-17T13:17:59.130Z,19.65
2023-04-17T13:20:26.177Z,19.80
2023-04-17T13:22:53.197Z,19.30
2023-04-17T13:25:20.189Z,19.30
2023-04-17T13:27:47.359Z,18.63
2023-04-17T13:30:14.552Z,18.95
2023-04-17T13:32:42.481Z,18.15
2023-04-17T13:35:12.909Z,18.38
2023-04-17T13:37:41.357Z,18.17
2023-04-17T13:40:12.581Z,17.00
2023-04-17T13:42:39.644Z,18.10
2023-04-17T13:45:07.756Z,18.42
2023-04-17T13:47:34.682Z,18.42
2023-04-17T13:50:01.694Z,18.92
2023-04-17T13:52:28.716Z,20.00
2023-04-17T13:54:55.705Z,19.30
2023-04-17T13:57:22.634Z,18.95
2023-04-17T13:59:49.525Z,19.85
2023-04-17T14:02:16.640Z,19.17
2023-04-17T14:04:43.821Z,19.33
2023-04-17T14:07:12.792Z,19.92
2023-04-17T14:09:39.871Z,20.15
2023-04-17T14:12:06.896Z,19.25
2023-04-17T14:14:33.897Z,19.67
2023-04-17T14:17:00.811Z,18.55
2023-04-17T14:19:28.735Z,18.90
2023-04-17T14:21:55.679Z,15.68
2023-04-17T14:24:22.731Z,19.70
2023-04-17T14:26:49.679Z,19.70
2023-04-17T14:29:16.567Z,21.15
2023-04-17T14:31:43.597Z,19.90
2023-04-17T14:34:10.824Z,20.38
2023-04-17T14:36:37.674Z,20.98
2023-04-17T14:39:04.587Z,19.77
2023-04-17T14:41:34.020Z,21.02
2023-04-17T14:44:01.349Z,19.33
2023-04-17T14:46:28.679Z,21.55
2023-04-17T14:48:56.235Z,19.98
2023-04-17T14:51:24.373Z,18.40
2023-04-17T14:53:53.066Z,19.67
2023-04-17T14:56:21.584Z,21.05
2023-04-17T14:58:49.008Z,19.38
2023-04-17T15:01:16.114Z,19.92
2023-04-17T15:03:46.705Z,21.05
2023-04-17T15:06:15.427Z,19.02
2023-04-17T15:08:42.633Z,19.88
2023-04-17T15:11:09.852Z,19.75
2023-04-17T15:13:36.854Z,21.40
2023-04-17T15:16:04.017Z,19.40
2023-04-17T15:18:31.185Z,20.88
2023-04-17T15:20:58.320Z,17.38
2023-04-17T15:23:29.642Z,21.05
2023-04-17T15:25:57.884Z,20.23
2023-04-17T15:28:25.685Z,20.58
2023-04-17T15:30:52.635Z,20.50
2023-04-17T15:33:19.966Z,22.20
2023-04-17T15:35:47.123Z,20.75
2023-04-17T15:38:14.221Z,19.55
2023-04-17T15:40:41.276Z,20.27
2023-04-17T15:43:10.657Z,17.02
2023-04-17T15:45:37.882Z,20.20
2023-04-17T15:48:05.320Z,19.23
2023-04-17T15:50:32.389Z,18.55
2023-04-17T15:52:59.350Z,17.50
2023-04-17T15:55:26.407Z,19.67
2023-04-17T15:57:53.440Z,17.23
2023-04-17T16:00:20.993Z,18.42
2023-04-17T16:02:49.019Z,17.38
2023-04-17T16:05:16.956Z,16.67
2023-04-17T16:07:45.466Z,16.10
2023-04-17T16:10:16.185Z,17.00
2023-04-17T16:12:46.576Z,17.50
2023-04-17T16:15:16.696Z,17.10
2023-04-17T16:17:45.608Z,17.45
2023-04-17T16:20:13.497Z,17.20
2023-04-17T16:22:40.728Z,18.08
2023-04-17T16:25:08.288Z,16.25
2023-04-17T16:27:35.310Z,19.17
2023-04-17T16:30:03.021Z,17.52
2023-04-17T16:32:31.656Z,17.70
2023-04-17T16:34:58.965Z,20.85
2023-04-17T16:37:26.147Z,17.95
2023-04-17T16:39:53.261Z,18.58
2023-04-17T16:42:20.315Z,17.95
2023-04-17T16:44:47.895Z,17.75
2023-04-17T16:47:15.158Z,16.50
2023-04-17T16:49:42.849Z,17.35
2023-04-17T16:52:10.231Z,17.70
2023-04-17T16:54:37.150Z,17.65
2023-04-17T16:57:05.755Z,16.92
2023-04-17T16:59:33.196Z,18.50
2023-04-17T17:02:02.559Z,18.38
2023-04-17T17:06:57.627Z,16.75
2023-04-17T17:09:25.641Z,16.65
2023-04-17T17:11:52.536Z,17.15
2023-04-17T17:14:19.552Z,18.20
2023-04-17T17:16:46.692Z,18.27
2023-04-17T17:19:14.769Z,18.00
2023-04-17T17:21:41.965Z,17.92
2023-04-17T17:24:08.914Z,18.02
2023-04-17T17:26:36.983Z,17.27
2023-04-17T17:29:04.667Z,17.88
2023-04-17T17:31:33.713Z,18.50
2023-04-17T17:34:12.024Z,17.25
2023-04-17T17:36:48.016Z,17.63
2023-04-17T17:39:15.085Z,19.95
2023-04-17T17:41:42.086Z,19.55
2023-04-17T17:44:09.009Z,19.63
2023-04-17T17:46:35.996Z,18.73
2023-04-17T17:49:02.983Z,19.05
2023-04-17T17:51:29.928Z,18.98
2023-04-17T17:53:56.892Z,19.75
2023-04-17T17:56:23.869Z,18.70
2023-04-17T17:58:51.183Z,17.52
2023-04-17T18:01:18.278Z,18.38
2023-04-17T18:03:48.847Z,17.80
2023-04-17T18:06:16.549Z,17.88
2023-04-17T18:08:43.448Z,18.23
2023-04-17T18:11:10.373Z,19.75
2023-04-17T18:13:37.307Z,18.10
2023-04-17T18:16:04.723Z,17.17
2023-04-17T18:18:31.732Z,18.70
2023-04-17T18:20:58.638Z,19.85
2023-04-17T18:23:25.621Z,17.30
2023-04-17T18:26:00.164Z,25.23
2023-04-17T18:28:27.466Z,24.60
2023-04-17T18:30:54.926Z,16.70
2023-04-17T18:33:21.919Z,17.88
2023-04-17T18:35:49.296Z,16.40
2023-04-17T18:38:16.883Z,17.42
2023-04-17T18:40:43.846Z,13.55
2023-04-17T18:43:10.803Z,15.30
2023-04-17T18:45:37.771Z,13.98
2023-04-17T18:48:05.023Z,17.92
2023-04-17T18:50:31.930Z,15.20
2023-04-17T18:52:58.829Z,12.98
2023-04-17T18:55:25.749Z,12.85
2023-04-17T18:57:52.773Z,14.35
2023-04-17T19:00:19.649Z,12.95
2023-04-17T19:02:47.783Z,13.23
2023-04-17T19:05:15.122Z,17.63
2023-04-17T19:07:42.053Z,13.80
2023-04-17T19:10:09.765Z,14.65
2023-04-17T19:12:36.632Z,12.15
2023-04-17T19:15:04.981Z,11.93
2023-04-17T19:17:31.935Z,13.65
2023-04-17T19:19:58.884Z,15.00
2023-04-17T19:22:25.861Z,12.80
2023-04-17T19:24:52.953Z,13.50
2023-04-17T19:27:20.733Z,11.52
2023-04-17T19:29:47.783Z,10.82
2023-04-17T19:32:18.107Z,11.63
2023-04-17T19:34:45.148Z,12.93
2023-04-17T19:37:12.247Z,11.27
2023-04-17T19:39:39.145Z,10.82
2023-04-17T19:42:06.273Z,10.25
2023-04-17T19:44:33.304Z,10.98
2023-04-17T19:47:00.258Z,12.50
2023-04-17T19:49:27.184Z,10.93
2023-04-17T19:51:54.312Z,11.95
2023-04-17T19:54:21.224Z,12.40
2023-04-17T19:56:48.329Z,11.05
2023-04-17T19:59:15.692Z,11.77
2023-04-17T20:01:44.359Z,12.02
2023-04-17T20:04:11.834Z,11.13
2023-04-17T20:06:39.797Z,10.27
2023-04-17T20:09:07.060Z,10.32
2023-04-17T20:11:34.772Z,11.45
2023-04-17T20:14:01.765Z,11.85
2023-04-17T20:16:28.778Z,10.35
2023-04-17T20:18:56.599Z,11.93
2023-04-17T20:21:24.096Z,10.55
2023-04-17T20:23:51.161Z,9.25
2023-04-17T20:26:18.415Z,8.95
2023-04-17T20:28:45.482Z,9.25
2023-04-17T20:31:12.402Z,10.52
2023-04-17T20:33:39.456Z,9.70
2023-04-17T20:36:06.615Z,8.27
2023-04-17T20:38:33.546Z,10.55
2023-04-17T20:41:00.585Z,7.00
2023-04-17T20:43:27.524Z,6.57
2023-04-17T20:45:54.580Z,6.60
2023-04-17T20:48:21.913Z,8.60
2023-04-17T20:50:48.986Z,6.88
2023-04-17T20:53:15.950Z,6.20
2023-04-17T20:55:42.883Z,6.70
2023-04-17T20:58:10.573Z,6.90
2023-04-17T21:00:44.464Z,8.52
2023-04-17T21:03:21.323Z,7.63
2023-04-17T21:05:48.283Z,7.63
2023-04-17T21:08:15.258Z,6.15
2023-04-17T21:10:42.182Z,8.00
2023-04-17T21:13:09.117Z,6.90
2023-04-17T21:15:36.103Z,8.73
2023-04-17T21:18:03.001Z,9.98
2023-04-17T21:20:30.007Z,6.05
2023-04-17T21:22:56.910Z,9.52
2023-04-17T21:25:23.796Z,8.23
2023-04-17T21:27:50.696Z,7.43
2023-04-17T21:30:17.745Z,24.85
2023-04-17T21:32:46.958Z,9.07
2023-04-17T21:35:13.954Z,17.70
2023-04-17T21:37:40.893Z,11.73
2023-04-17T21:40:08.675Z,18.92
2023-04-17T21:42:35.598Z,21.98
2023-04-17T21:45:02.593Z,12.85
2023-04-17T21:47:29.581Z,14.55
2023-04-17T21:49:56.589Z,8.07
2023-04-17T21:52:23.502Z,7.85
2023-04-17T21:54:50.433Z,9.40
2023-04-17T21:57:17.322Z,9.52
2023-04-17T21:59:44.239Z,8.55
2023-04-17T22:02:11.223Z,7.55
2023-04-17T22:04:38.285Z,8.32
2023-04-17T22:07:05.562Z,8.02
2023-04-17T22:09:32.563Z,7.45
2023-04-17T22:11:59.486Z,9.25
2023-04-17T22:14:26.390Z,6.80
2023-04-17T22:16:53.430Z,6.45
2023-04-17T22:19:20.327Z,6.20
2023-04-17T22:21:47.384Z,5.80
2023-04-17T22:24:14.569Z,6.93
2023-04-17T22:26:41.624Z,6.93
2023-04-17T22:29:08.528Z,6.07
2023-04-17T22:31:35.511Z,5.47
2023-04-17T22:34:02.412Z,5.90
2023-04-17T22:36:29.299Z,6.57
2023-04-17T22:38:56.253Z,5.72
2023-04-17T22:41:23.111Z,5.68
2023-04-17T22:43:53.126Z,5.75
2023-04-17T22:46:20.070Z,6.05
2023-04-17T22:48:47.396Z,6.45
2023-04-17T22:51:15.012Z,5.63
2023-04-17T22:53:42.713Z,5.85
2023-04-17T22:56:13.583Z,6.07
2023-04-17T22:58:40.666Z,6.15
2023-04-17T23:01:07.677Z,5.80
2023-04-17T23:03:35.321Z,6.30
2023-04-17T23:06:03.326Z,5.38
2023-04-17T23:08:30.845Z,6.47
2023-04-17T23:11:02.004Z,5.93
2023-04-17T23:13:30.589Z,6.57
2023-04-17T23:15:58.051Z,5.68
2023-04-17T23:18:25.032Z,7.25
2023-04-17T23:20:52.102Z,4.90
2023-04-17T23:23:19.035Z,6.88
2023-04-17T23:25:46.048Z,5.43
2023-04-17T23:28:12.971Z,5.22
2023-04-17T23:30:40.064Z,5.60
2023-04-17T23:33:07.252Z,5.97
2023-04-17T23:35:34.253Z,5.35
2023-04-17T23:38:01.138Z,6.38
2023-04-17T23:40:28.219Z,7.00
2023-04-17T23:42:55.551Z,6.15
2023-04-17T23:45:22.471Z,5.93
2023-04-17T23:47:49.561Z,6.35
2023-04-17T23:50:16.558Z,5.68
2023-04-17T23:52:43.493Z,6.20
2023-04-17T23:55:10.506Z,6.75
2023-04-17T23:57:38.355Z,5.15
